createdAt,value
2019-06-27T00:00:51.264Z,53.20
2019-06-27T00:03:19.267Z,53.30
2019-06-27T00:05:47.230Z,53.41
2019-06-27T00:08:15.259Z,53.47
2019-06-27T00:10:42.987Z,53.71
2019-06-27T00:13:10.860Z,53.83
2019-06-27T00:15:38.837Z,53.85
2019-06-27T00:18:06.683Z,53.91
2019-06-27T00:20:34.628Z,54.09
2019-06-27T00:23:02.502Z,54.40
2019-06-27T00:25:30.362Z,54.21
2019-06-27T00:27:58.129Z,54.35
2019-06-27T00:30:26.453Z,54.41
2019-06-27T00:32:54.206Z,54.75
2019-06-27T00:35:22.029Z,54.82
2019-06-27T00:37:49.835Z,54.80
2019-06-27T00:40:18.352Z,54.86
2019-06-27T00:42:46.254Z,54.97
2019-06-27T00:45:14.362Z,55.34
2019-06-27T00:47:42.114Z,55.27
2019-06-27T00:50:10.337Z,55.55
2019-06-27T00:52:38.275Z,56.34
2019-06-27T00:55:06.617Z,55.67
2019-06-27T00:57:34.462Z,55.79
2019-06-27T01:00:03.445Z,55.90
2019-06-27T01:02:31.992Z,56.19
2019-06-27T01:05:01.284Z,56.70
2019-06-27T01:07:29.027Z,56.66
2019-06-27T01:09:56.902Z,57.89
2019-06-27T01:12:25.275Z,58.17
2019-06-27T01:14:53.118Z,58.07
2019-06-27T01:17:20.879Z,58.30
2019-06-27T01:19:48.814Z,59.50
2019-06-27T01:22:16.850Z,59.77
2019-06-27T01:24:44.669Z,60.36
2019-06-27T01:27:12.410Z,60.46
2019-06-27T01:29:40.230Z,60.22
2019-06-27T01:32:08.080Z,60.76
2019-06-27T01:34:36.003Z,61.13
2019-06-27T01:37:03.932Z,60.10
2019-06-27T01:39:31.966Z,60.60
2019-06-27T01:41:59.719Z,61.10
2019-06-27T01:44:55.983Z,60.39
2019-06-27T01:47:23.785Z,61.06
2019-06-27T01:49:51.796Z,60.72
2019-06-27T01:52:19.830Z,61.71
2019-06-27T01:54:47.649Z,61.61
2019-06-27T01:57:16.450Z,62.83
2019-06-27T01:59:44.349Z,62.78
2019-06-27T02:02:12.787Z,62.72
2019-06-27T02:04:40.768Z,62.37
2019-06-27T02:07:08.644Z,63.51
2019-06-27T02:09:36.540Z,63.79
2019-06-27T02:12:04.509Z,62.33
2019-06-27T02:14:32.575Z,62.51
2019-06-27T02:17:00.578Z,62.18
2019-06-27T02:19:28.507Z,62.55
2019-06-27T02:21:56.500Z,62.35
2019-06-27T02:24:24.605Z,62.06
2019-06-27T02:26:52.406Z,61.69
2019-06-27T02:29:20.133Z,61.72
2019-06-27T02:31:47.942Z,61.69
2019-06-27T02:34:15.818Z,61.66
2019-06-27T02:36:43.605Z,61.64
2019-06-27T02:39:11.350Z,61.84
2019-06-27T02:41:39.947Z,62.33
2019-06-27T02:44:09.448Z,61.97
2019-06-27T02:46:37.416Z,62.26
2019-06-27T02:49:05.433Z,62.22
2019-06-27T02:51:33.461Z,62.04
2019-06-27T02:54:01.246Z,62.03
2019-06-27T02:56:29.295Z,62.13
2019-06-27T02:58:57.116Z,62.29
2019-06-27T03:01:25.127Z,63.78
2019-06-27T03:03:53.084Z,63.75
2019-06-27T03:06:21.071Z,63.64
2019-06-27T03:08:48.923Z,63.55
2019-06-27T03:11:17.851Z,63.97
2019-06-27T03:13:45.933Z,63.94
2019-06-27T03:16:13.944Z,64.89
2019-06-27T03:18:41.781Z,64.52
2019-06-27T03:21:09.640Z,64.25
2019-06-27T03:23:37.558Z,64.53
2019-06-27T03:26:06.531Z,64.08
2019-06-27T03:28:51.172Z,63.75
2019-06-27T03:31:04.211Z,63.50
2019-06-27T03:33:32.490Z,63.32
2019-06-27T03:36:00.396Z,63.31
2019-06-27T03:38:28.392Z,63.32
2019-06-27T03:40:56.353Z,63.34
2019-06-27T03:43:24.515Z,63.14
2019-06-27T03:45:54.337Z,63.31
2019-06-27T03:48:22.114Z,63.11
2019-06-27T03:50:49.873Z,62.86
2019-06-27T03:53:17.658Z,63.15
2019-06-27T03:55:45.540Z,63.22
2019-06-27T03:58:13.426Z,62.96
2019-06-27T04:00:41.239Z,63.37
2019-06-27T04:03:09.879Z,63.40
2019-06-27T04:05:37.655Z,63.01
2019-06-27T04:08:05.636Z,62.97
2019-06-27T04:10:33.658Z,63.23
2019-06-27T04:13:01.564Z,63.21
2019-06-27T04:15:29.469Z,63.24
2019-06-27T04:17:57.424Z,63.04
2019-06-27T04:20:25.339Z,63.47
2019-06-27T04:22:53.391Z,63.25
2019-06-27T04:25:21.372Z,63.67
2019-06-27T04:27:49.276Z,63.43
2019-06-27T04:30:17.235Z,63.28
2019-06-27T04:32:45.325Z,62.89
2019-06-27T04:35:16.083Z,62.80
2019-06-27T04:37:44.684Z,62.23
2019-06-27T04:40:12.529Z,62.11
2019-06-27T04:42:40.330Z,61.92
2019-06-27T04:45:09.396Z,62.07
2019-06-27T04:47:37.322Z,61.77
2019-06-27T04:50:05.235Z,62.41
2019-06-27T04:52:33.076Z,62.49
2019-06-27T04:55:03.560Z,62.11
2019-06-27T04:57:30.513Z,62.42
2019-06-27T04:59:58.394Z,62.86
2019-06-27T05:02:30.808Z,62.63
2019-06-27T05:04:57.513Z,62.92
2019-06-27T05:07:25.324Z,62.54
2019-06-27T05:09:53.150Z,62.57
2019-06-27T05:12:21.646Z,62.41
2019-06-27T05:14:49.456Z,62.06
2019-06-27T05:17:17.360Z,61.72
2019-06-27T05:19:45.099Z,61.94
2019-06-27T05:22:12.998Z,61.67
2019-06-27T05:24:40.768Z,61.57
2019-06-27T05:27:09.290Z,61.62
2019-06-27T05:29:37.167Z,61.47
2019-06-27T05:32:05.765Z,61.24
2019-06-27T05:34:33.655Z,61.15
2019-06-27T05:37:01.490Z,61.08
2019-06-27T05:39:29.335Z,61.00
2019-06-27T05:41:57.891Z,60.70
2019-06-27T05:44:25.872Z,60.70
2019-06-27T05:46:53.619Z,60.20
2019-06-27T05:49:21.977Z,60.65
2019-06-27T05:51:49.865Z,60.72
2019-06-27T05:54:17.748Z,61.07
2019-06-27T05:56:45.539Z,59.98
2019-06-27T05:59:13.259Z,59.62
2019-06-27T06:01:41.166Z,58.93
2019-06-27T06:04:08.914Z,58.34
2019-06-27T06:06:37.570Z,58.10
2019-06-27T06:09:06.021Z,57.54
2019-06-27T06:11:33.932Z,56.97
2019-06-27T06:14:01.742Z,56.66
2019-06-27T06:16:31.203Z,56.68
2019-06-27T06:18:58.989Z,57.39
2019-06-27T06:21:26.829Z,57.97
2019-06-27T06:23:54.774Z,58.39
2019-06-27T06:26:22.576Z,58.27
2019-06-27T06:28:50.374Z,58.24
2019-06-27T06:31:18.071Z,58.16
2019-06-27T06:33:45.827Z,58.20
2019-06-27T06:36:13.808Z,57.64
2019-06-27T06:38:41.841Z,57.95
2019-06-27T06:41:09.622Z,58.09
2019-06-27T06:43:37.454Z,57.46
2019-06-27T06:46:05.432Z,56.98
2019-06-27T06:48:33.235Z,57.76
2019-06-27T06:51:01.142Z,57.42
2019-06-27T06:53:29.289Z,57.10
2019-06-27T06:55:57.142Z,56.77
2019-06-27T06:58:24.933Z,57.14
2019-06-27T07:01:01.706Z,54.45
2019-06-27T07:03:22.763Z,54.25
2019-06-27T07:05:50.447Z,53.00
2019-06-27T07:08:18.388Z,52.90
2019-06-27T07:10:46.098Z,52.74
2019-06-27T07:13:13.963Z,52.51
2019-06-27T07:15:41.821Z,53.68
2019-06-27T07:18:09.735Z,50.79
2019-06-27T07:20:37.492Z,50.92
2019-06-27T07:23:05.271Z,51.27
2019-06-27T07:25:33.086Z,51.96
2019-06-27T07:28:00.963Z,52.88
2019-06-27T07:30:28.777Z,52.20
2019-06-27T07:32:56.745Z,51.02
2019-06-27T07:35:24.524Z,50.64
2019-06-27T07:37:53.030Z,51.46
2019-06-27T07:40:21.040Z,52.33
2019-06-27T07:42:48.899Z,52.78
2019-06-27T07:45:16.894Z,52.45
2019-06-27T07:47:44.674Z,52.26
2019-06-27T07:50:12.896Z,51.83
2019-06-27T07:52:40.826Z,51.88
2019-06-27T07:55:10.958Z,52.05
2019-06-27T07:57:38.891Z,51.60
2019-06-27T08:00:08.200Z,52.56
2019-06-27T08:02:36.149Z,50.23
2019-06-27T08:05:04.512Z,50.27
2019-06-27T08:07:32.561Z,51.40
2019-06-27T08:10:00.613Z,51.31
2019-06-27T08:12:28.486Z,50.29
2019-06-27T08:14:56.351Z,50.19
2019-06-27T08:17:25.461Z,49.68
2019-06-27T08:19:53.521Z,49.40
2019-06-27T08:22:21.446Z,49.55
2019-06-27T08:24:49.249Z,49.49
2019-06-27T08:27:17.134Z,47.21
2019-06-27T08:29:45.079Z,47.89
2019-06-27T08:32:12.847Z,45.70
2019-06-27T08:34:40.741Z,45.94
2019-06-27T08:37:08.525Z,46.75
2019-06-27T08:39:36.434Z,47.60
2019-06-27T08:42:04.479Z,46.37
2019-06-27T08:44:32.484Z,46.93
2019-06-27T08:47:00.466Z,45.73
2019-06-27T08:49:28.312Z,45.47
2019-06-27T08:51:56.072Z,44.60
2019-06-27T08:54:23.988Z,42.46
2019-06-27T08:56:51.862Z,43.08
2019-06-27T08:59:19.904Z,43.41
2019-06-27T09:01:47.712Z,42.28
2019-06-27T09:04:15.628Z,42.26
2019-06-27T09:06:44.161Z,42.22
2019-06-27T09:09:12.084Z,38.67
2019-06-27T09:11:39.898Z,38.79
2019-06-27T09:14:07.893Z,38.79
2019-06-27T09:16:35.739Z,37.15
2019-06-27T09:19:03.766Z,36.69
2019-06-27T09:21:31.601Z,36.84
2019-06-27T09:23:59.580Z,36.50
2019-06-27T09:26:27.364Z,36.68
2019-06-27T09:29:05.141Z,37.43
2019-06-27T09:31:32.930Z,37.71
2019-06-27T09:34:00.823Z,37.76
2019-06-27T09:36:28.672Z,35.76
2019-06-27T09:38:56.610Z,37.31
2019-06-27T09:41:24.521Z,36.96
2019-06-27T09:43:52.503Z,34.34
2019-06-27T09:46:20.400Z,34.95
2019-06-27T09:48:48.233Z,34.26
2019-06-27T09:51:16.264Z,33.12
2019-06-27T09:53:44.119Z,32.89
2019-06-27T09:56:11.988Z,32.76
2019-06-27T09:58:39.949Z,32.67
2019-06-27T10:01:07.860Z,31.29
2019-06-27T10:03:35.785Z,28.02
2019-06-27T10:06:03.706Z,30.76
2019-06-27T10:08:31.599Z,31.53
2019-06-27T10:11:00.788Z,31.91
2019-06-27T10:13:28.676Z,31.76
2019-06-27T10:15:56.578Z,30.93
2019-06-27T10:18:25.313Z,29.29
2019-06-27T10:20:53.347Z,30.32
2019-06-27T10:23:21.179Z,31.94
2019-06-27T10:25:49.156Z,32.26
2019-06-27T10:28:17.027Z,32.40
2019-06-27T10:30:49.326Z,32.15
2019-06-27T10:33:17.177Z,32.05
2019-06-27T10:35:44.981Z,33.51
2019-06-27T10:38:12.847Z,33.43
2019-06-27T10:40:41.000Z,33.11
2019-06-27T10:43:08.839Z,33.29
2019-06-27T10:45:36.727Z,31.43
2019-06-27T10:48:04.453Z,30.73
2019-06-27T10:50:32.531Z,27.66
2019-06-27T10:53:00.357Z,27.07
2019-06-27T10:55:28.432Z,27.75
2019-06-27T10:57:56.238Z,28.87
2019-06-27T11:00:24.751Z,28.72
2019-06-27T11:02:52.655Z,28.31
2019-06-27T11:05:20.573Z,28.36
2019-06-27T11:07:48.412Z,28.14
2019-06-27T11:10:16.427Z,26.80
2019-06-27T11:12:45.228Z,27.30
2019-06-27T11:15:13.422Z,26.53
2019-06-27T11:17:41.132Z,25.73
2019-06-27T11:20:09.194Z,26.80
2019-06-27T11:22:37.215Z,27.26
2019-06-27T11:25:05.592Z,27.20
2019-06-27T11:27:33.635Z,26.94
2019-06-27T11:30:01.570Z,27.96
2019-06-27T11:32:29.705Z,27.66
2019-06-27T11:34:57.607Z,27.02
2019-06-27T11:37:25.411Z,26.80
2019-06-27T11:39:53.275Z,26.86
2019-06-27T11:42:21.198Z,27.54
2019-06-27T11:44:49.029Z,26.99
2019-06-27T11:47:16.892Z,26.84
2019-06-27T11:49:44.730Z,26.92
2019-06-27T11:52:13.098Z,26.09
2019-06-27T11:54:41.043Z,26.17
2019-06-27T11:57:08.895Z,26.02
2019-06-27T11:59:36.796Z,25.65
2019-06-27T12:02:04.907Z,25.92
2019-06-27T12:04:41.231Z,26.21
2019-06-27T12:07:09.117Z,26.33
2019-06-27T12:09:37.151Z,26.63
2019-06-27T12:12:05.217Z,26.32
2019-06-27T12:14:32.930Z,25.78
2019-06-27T12:17:00.747Z,25.32
2019-06-27T12:19:28.666Z,25.18
2019-06-27T12:21:56.639Z,23.59
2019-06-27T12:24:24.385Z,24.23
2019-06-27T12:26:52.273Z,24.51
2019-06-27T12:29:20.340Z,25.20
2019-06-27T12:31:51.476Z,25.51
2019-06-27T12:34:17.774Z,25.66
2019-06-27T12:36:45.587Z,25.03
2019-06-27T12:39:13.458Z,25.41
2019-06-27T12:41:41.246Z,25.33
2019-06-27T12:44:09.221Z,25.30
2019-06-27T12:46:37.160Z,25.77
2019-06-27T12:49:05.031Z,25.34
2019-06-27T12:51:32.982Z,25.80
2019-06-27T12:54:00.671Z,25.82
2019-06-27T12:56:28.589Z,24.63
2019-06-27T12:58:56.813Z,24.40
2019-06-27T13:01:24.642Z,25.07
2019-06-27T13:03:52.414Z,22.82
2019-06-27T13:06:20.239Z,22.59
2019-06-27T13:08:48.064Z,22.42
2019-06-27T13:11:15.888Z,22.15
2019-06-27T13:13:43.920Z,22.14
2019-06-27T13:16:12.036Z,20.96
2019-06-27T13:18:40.017Z,20.85
2019-06-27T13:21:07.806Z,21.85
2019-06-27T13:23:35.588Z,21.92
2019-06-27T13:26:04.184Z,21.92
2019-06-27T13:28:32.021Z,21.46
2019-06-27T13:30:59.854Z,21.84
2019-06-27T13:33:27.726Z,21.37
2019-06-27T13:35:55.603Z,21.68
2019-06-27T13:38:23.387Z,21.90
2019-06-27T13:40:51.204Z,22.90
2019-06-27T13:43:19.106Z,22.60
2019-06-27T13:45:46.857Z,21.39
2019-06-27T13:48:14.659Z,21.94
2019-06-27T13:50:44.176Z,21.91
2019-06-27T13:53:11.979Z,22.52
2019-06-27T13:55:39.824Z,21.72
2019-06-27T13:58:07.657Z,21.58
2019-06-27T14:00:43.284Z,21.81
2019-06-27T14:03:11.429Z,20.93
2019-06-27T14:05:40.206Z,20.50
2019-06-27T14:08:08.493Z,20.16
2019-06-27T14:10:36.580Z,20.48
2019-06-27T14:13:04.485Z,20.60
2019-06-27T14:15:32.455Z,21.44
2019-06-27T14:18:00.587Z,22.19
2019-06-27T14:20:28.524Z,21.81
2019-06-27T14:22:57.082Z,21.24
2019-06-27T14:25:25.126Z,22.18
2019-06-27T14:27:53.091Z,22.13
2019-06-27T14:30:21.197Z,22.44
2019-06-27T14:32:52.309Z,22.13
2019-06-27T14:35:19.007Z,22.98
2019-06-27T14:37:47.700Z,21.90
2019-06-27T14:40:18.032Z,21.18
2019-06-27T14:42:45.928Z,21.29
2019-06-27T14:45:14.509Z,21.51
2019-06-27T14:47:42.289Z,21.91
2019-06-27T14:50:11.536Z,21.90
2019-06-27T14:52:39.390Z,21.95
2019-06-27T14:55:07.892Z,21.49
2019-06-27T14:57:35.711Z,21.89
2019-06-27T15:00:04.269Z,22.51
2019-06-27T15:02:32.114Z,22.08
2019-06-27T15:04:59.956Z,22.95
2019-06-27T15:07:28.025Z,22.93
2019-06-27T15:09:56.561Z,23.10
2019-06-27T15:12:24.537Z,22.38
2019-06-27T15:14:52.337Z,21.83
2019-06-27T15:17:20.132Z,22.18
2019-06-27T15:19:48.214Z,22.48
2019-06-27T15:22:16.032Z,22.12
2019-06-27T15:24:44.020Z,21.86
2019-06-27T15:27:12.051Z,22.51
2019-06-27T15:29:39.831Z,22.35
2019-06-27T15:32:07.557Z,22.71
2019-06-27T15:34:36.820Z,23.10
2019-06-27T15:37:04.641Z,22.85
2019-06-27T15:39:32.717Z,23.35
2019-06-27T15:42:07.637Z,23.30
2019-06-27T15:44:36.931Z,23.36
2019-06-27T15:47:04.813Z,23.38
2019-06-27T15:49:32.740Z,23.25
2019-06-27T15:52:00.684Z,23.22
2019-06-27T15:54:28.626Z,24.15
2019-06-27T15:56:56.489Z,23.52
2019-06-27T15:59:24.395Z,23.73
2019-06-27T16:01:52.372Z,23.18
2019-06-27T16:04:32.314Z,23.60
2019-06-27T16:06:50.073Z,23.89
2019-06-27T16:09:18.055Z,24.03
2019-06-27T16:11:45.924Z,23.96
2019-06-27T16:14:13.739Z,24.78
2019-06-27T16:16:41.481Z,24.43
2019-06-27T16:19:09.299Z,24.46
2019-06-27T16:21:38.023Z,24.41
2019-06-27T16:24:05.933Z,24.62
2019-06-27T16:26:34.035Z,25.00
2019-06-27T16:29:02.858Z,25.07
2019-06-27T16:31:31.465Z,24.60
2019-06-27T16:33:59.261Z,24.85
2019-06-27T16:36:27.052Z,24.88
2019-06-27T16:38:55.114Z,25.24
2019-06-27T16:41:23.021Z,25.24
2019-06-27T16:44:00.646Z,25.02
2019-06-27T16:46:28.626Z,24.59
2019-06-27T16:48:56.487Z,25.03
2019-06-27T16:51:24.470Z,25.62
2019-06-27T16:53:52.527Z,25.35
2019-06-27T16:56:21.019Z,25.45
2019-06-27T16:58:49.659Z,25.50
2019-06-27T17:01:17.465Z,24.74
2019-06-27T17:03:45.326Z,24.45
2019-06-27T17:06:13.095Z,24.72
2019-06-27T17:08:42.111Z,24.88
2019-06-27T17:11:10.544Z,25.43
2019-06-27T17:13:38.314Z,25.23
2019-06-27T17:16:06.202Z,25.59
2019-06-27T17:18:34.188Z,25.64
2019-06-27T17:21:02.278Z,25.84
2019-06-27T17:23:30.102Z,25.91
2019-06-27T17:25:58.138Z,25.90
2019-06-27T17:28:26.049Z,26.01
2019-06-27T17:30:53.966Z,26.15
2019-06-27T17:33:21.749Z,26.68
2019-06-27T17:35:49.571Z,26.34
2019-06-27T17:38:17.297Z,26.71
2019-06-27T17:40:45.189Z,26.79
2019-06-27T17:43:13.012Z,27.09
2019-06-27T17:45:41.691Z,27.82
2019-06-27T17:48:09.435Z,27.66
2019-06-27T17:50:37.347Z,27.84
2019-06-27T17:53:05.300Z,28.05
2019-06-27T17:55:33.790Z,28.27
2019-06-27T17:58:01.541Z,28.20
2019-06-27T18:00:29.265Z,28.81
2019-06-27T18:02:56.994Z,28.99
2019-06-27T18:05:26.756Z,29.30
2019-06-27T18:07:54.692Z,29.14
2019-06-27T18:10:22.731Z,29.07
2019-06-27T18:12:50.590Z,29.19
2019-06-27T18:15:18.610Z,29.58
2019-06-27T18:17:46.787Z,29.56
2019-06-27T18:20:15.249Z,29.53
2019-06-27T18:22:43.007Z,30.47
2019-06-27T18:25:11.039Z,30.15
2019-06-27T18:27:38.802Z,30.32
2019-06-27T18:30:07.350Z,30.35
2019-06-27T18:32:37.747Z,30.62
2019-06-27T18:35:06.383Z,30.69
2019-06-27T18:37:34.375Z,30.86
2019-06-27T18:40:02.370Z,30.64
2019-06-27T18:42:30.929Z,30.84
2019-06-27T18:44:58.692Z,30.63
2019-06-27T18:47:26.622Z,30.75
2019-06-27T18:49:54.589Z,30.70
2019-06-27T18:52:22.363Z,30.94
2019-06-27T18:54:50.212Z,30.85
2019-06-27T18:57:18.068Z,30.98
2019-06-27T18:59:45.849Z,30.86
2019-06-27T19:02:13.699Z,30.96
2019-06-27T19:04:41.458Z,30.85
2019-06-27T19:07:09.608Z,31.03
2019-06-27T19:09:37.493Z,31.01
2019-06-27T19:12:05.369Z,31.30
2019-06-27T19:14:33.232Z,31.59
2019-06-27T19:17:02.266Z,31.76
2019-06-27T19:19:35.167Z,31.81
2019-06-27T19:22:22.813Z,31.70
2019-06-27T19:24:56.115Z,31.98
2019-06-27T19:27:23.941Z,32.31
2019-06-27T19:29:52.852Z,32.25
2019-06-27T19:32:20.683Z,32.30
2019-06-27T19:34:48.609Z,32.36
2019-06-27T19:37:16.521Z,32.60
2019-06-27T19:39:44.326Z,32.83
2019-06-27T19:42:12.625Z,33.04
2019-06-27T19:44:40.405Z,33.04
2019-06-27T19:47:08.344Z,33.30
2019-06-27T19:49:36.885Z,33.14
2019-06-27T19:52:04.787Z,33.40
2019-06-27T19:54:44.009Z,33.71
2019-06-27T19:57:11.997Z,33.40
2019-06-27T19:59:41.306Z,33.50
2019-06-27T20:02:09.191Z,33.68
2019-06-27T20:04:36.990Z,33.99
2019-06-27T20:07:04.929Z,34.05
2019-06-27T20:09:33.682Z,34.14
2019-06-27T20:12:01.584Z,34.24
2019-06-27T20:14:30.403Z,34.39
2019-06-27T20:16:58.511Z,34.56
2019-06-27T20:19:26.242Z,34.83
2019-06-27T20:21:54.240Z,34.80
2019-06-27T20:24:22.124Z,34.84
2019-06-27T20:26:49.919Z,35.12
2019-06-27T20:29:17.889Z,35.31
2019-06-27T20:31:45.777Z,35.47
2019-06-27T20:34:13.554Z,35.84
2019-06-27T20:36:41.531Z,35.60
2019-06-27T20:39:09.376Z,35.82
2019-06-27T20:41:37.171Z,35.89
2019-06-27T20:44:06.867Z,36.00
2019-06-27T20:46:34.937Z,36.21
2019-06-27T20:49:02.745Z,36.34
2019-06-27T20:51:31.010Z,36.36
2019-06-27T20:53:58.883Z,36.57
2019-06-27T20:56:30.153Z,36.74
2019-06-27T20:58:56.694Z,36.80
2019-06-27T21:01:24.560Z,37.09
2019-06-27T21:03:53.058Z,37.17
2019-06-27T21:06:20.864Z,37.34
2019-06-27T21:08:51.710Z,37.55
2019-06-27T21:11:19.758Z,37.63
2019-06-27T21:13:47.875Z,37.66
2019-06-27T21:16:15.694Z,37.74
2019-06-27T21:18:43.561Z,37.81
2019-06-27T21:21:11.612Z,37.99
2019-06-27T21:23:39.607Z,38.32
2019-06-27T21:26:07.647Z,38.44
2019-06-27T21:28:35.443Z,39.46
2019-06-27T21:31:03.792Z,39.48
2019-06-27T21:33:31.740Z,39.53
2019-06-27T21:35:59.553Z,39.73
2019-06-27T21:38:28.080Z,39.84
2019-06-27T21:40:55.840Z,40.06
2019-06-27T21:43:23.754Z,40.19
2019-06-27T21:45:51.522Z,40.24
2019-06-27T21:48:19.309Z,40.48
2019-06-27T21:50:47.050Z,40.53
2019-06-27T21:53:15.075Z,40.71
2019-06-27T21:55:42.921Z,40.74
2019-06-27T21:58:10.791Z,40.95
2019-06-27T22:00:38.710Z,41.16
2019-06-27T22:03:06.730Z,41.45
2019-06-27T22:05:34.679Z,41.71
2019-06-27T22:08:02.577Z,41.93
2019-06-27T22:10:30.428Z,41.84
2019-06-27T22:12:58.235Z,41.99
2019-06-27T22:15:26.250Z,42.19
2019-06-27T22:17:54.265Z,42.50
2019-06-27T22:20:22.208Z,42.92
2019-06-27T22:22:50.095Z,43.08
2019-06-27T22:25:18.298Z,43.31
2019-06-27T22:27:46.191Z,43.51
2019-06-27T22:30:14.276Z,43.65
2019-06-27T22:32:42.192Z,43.83
2019-06-27T22:35:10.243Z,44.17
2019-06-27T22:37:37.671Z,44.27
2019-06-27T22:40:24.381Z,44.66
2019-06-27T22:43:10.170Z,44.87
2019-06-27T22:45:56.616Z,45.03
2019-06-27T22:48:24.283Z,45.20
2019-06-27T22:51:09.232Z,45.59
2019-06-27T22:53:56.034Z,46.04
2019-06-27T22:56:24.530Z,46.43
2019-06-27T22:58:52.557Z,46.47
2019-06-27T23:01:20.428Z,46.75
2019-06-27T23:03:48.383Z,47.00
2019-06-27T23:06:16.246Z,47.12
2019-06-27T23:08:44.109Z,47.31
2019-06-27T23:11:12.161Z,47.57
2019-06-27T23:13:40.015Z,48.39
2019-06-27T23:16:07.920Z,48.71
2019-06-27T23:18:35.735Z,48.50
2019-06-27T23:21:04.672Z,48.80
2019-06-27T23:23:32.606Z,48.85
2019-06-27T23:26:00.466Z,49.75
2019-06-27T23:28:28.221Z,49.53
2019-06-27T23:30:56.279Z,49.69
2019-06-27T23:33:24.172Z,49.68
2019-06-27T23:35:52.683Z,50.29
2019-06-27T23:38:21.251Z,50.08
2019-06-27T23:40:49.146Z,50.78
2019-06-27T23:43:16.895Z,50.69
2019-06-27T23:45:44.826Z,50.97
2019-06-27T23:48:12.677Z,51.03
2019-06-27T23:50:40.481Z,51.24
2019-06-27T23:53:08.255Z,51.84
2019-06-27T23:55:36.064Z,51.59
2019-06-27T23:58:03.923Z,51.82
